createdAt,value
2018-09-23T00:01:20.177Z,41.50
2018-09-23T00:03:50.123Z,41.26
2018-09-23T00:06:18.656Z,41.21
2018-09-23T00:08:47.348Z,42.14
2018-09-23T00:11:15.817Z,42.79
2018-09-23T00:13:44.298Z,42.74
2018-09-23T00:16:12.765Z,45.90
2018-09-23T00:18:41.191Z,49.70
2018-09-23T00:21:09.610Z,52.30
2018-09-23T00:23:38.198Z,47.77
2018-09-23T00:26:06.691Z,50.31
2018-09-23T00:28:35.044Z,49.09
2018-09-23T00:31:03.397Z,49.25
2018-09-23T00:33:31.827Z,48.37
2018-09-23T00:36:00.208Z,49.15
2018-09-23T00:38:28.475Z,50.29
2018-09-23T00:40:56.784Z,49.23
2018-09-23T00:43:25.095Z,49.76
2018-09-23T00:45:53.524Z,50.63
2018-09-23T00:48:21.839Z,49.34
2018-09-23T00:50:50.265Z,49.41
2018-09-23T00:53:18.799Z,50.02
2018-09-23T00:55:47.255Z,49.98
2018-09-23T00:58:15.683Z,50.58
2018-09-23T01:00:48.358Z,50.28
2018-09-23T01:03:16.736Z,50.85
2018-09-23T01:05:45.689Z,50.88
2018-09-23T01:08:14.011Z,50.77
2018-09-23T01:10:42.395Z,51.81
2018-09-23T01:13:11.666Z,50.56
2018-09-23T01:15:40.763Z,51.38
2018-09-23T01:18:09.035Z,51.32
2018-09-23T01:20:37.596Z,51.04
2018-09-23T01:23:08.221Z,50.87
2018-09-23T01:25:38.947Z,50.18
2018-09-23T01:28:07.656Z,51.03
2018-09-23T01:30:36.076Z,50.85
2018-09-23T01:33:04.450Z,51.03
2018-09-23T01:35:32.781Z,50.53
2018-09-23T01:38:01.065Z,50.80
2018-09-23T01:40:29.410Z,51.28
2018-09-23T01:42:57.733Z,50.61
2018-09-23T01:45:26.145Z,51.61
2018-09-23T01:47:54.437Z,51.97
2018-09-23T01:50:22.776Z,51.85
2018-09-23T01:52:51.088Z,52.44
2018-09-23T01:55:19.422Z,52.41
2018-09-23T01:57:47.695Z,51.61
2018-09-23T02:00:15.978Z,52.95
2018-09-23T02:02:44.460Z,53.60
2018-09-23T02:05:12.762Z,53.55
2018-09-23T02:07:41.240Z,53.55
2018-09-23T02:10:09.584Z,53.57
2018-09-23T02:12:37.857Z,52.73
2018-09-23T02:15:06.693Z,53.12
2018-09-23T02:17:35.003Z,53.44
2018-09-23T02:20:03.295Z,53.38
2018-09-23T02:22:31.605Z,52.77
2018-09-23T02:24:59.943Z,53.55
2018-09-23T02:27:28.247Z,53.58
2018-09-23T02:29:56.551Z,53.31
2018-09-23T02:32:24.877Z,53.35
2018-09-23T02:34:53.202Z,53.88
2018-09-23T02:37:21.584Z,53.17
2018-09-23T02:39:49.880Z,53.43
2018-09-23T02:42:18.815Z,52.51
2018-09-23T02:44:47.454Z,53.49
2018-09-23T02:47:15.745Z,54.02
2018-09-23T02:49:44.044Z,53.32
2018-09-23T02:52:12.318Z,53.50
2018-09-23T02:54:41.757Z,53.75
2018-09-23T02:57:10.166Z,53.19
2018-09-23T02:59:38.447Z,54.73
2018-09-23T03:02:06.830Z,55.16
2018-09-23T03:04:35.216Z,54.20
2018-09-23T03:07:03.566Z,53.33
2018-09-23T03:09:32.026Z,52.98
2018-09-23T03:12:00.443Z,52.89
2018-09-23T03:14:28.758Z,53.49
2018-09-23T03:16:57.156Z,54.56
2018-09-23T03:19:25.497Z,54.06
2018-09-23T03:21:53.906Z,53.40
2018-09-23T03:24:22.184Z,53.96
2018-09-23T03:26:50.479Z,53.90
2018-09-23T03:29:18.760Z,51.94
2018-09-23T03:31:47.524Z,52.49
2018-09-23T03:34:15.804Z,52.06
2018-09-23T03:36:44.212Z,52.19
2018-09-23T03:39:12.582Z,53.42
2018-09-23T03:41:41.162Z,53.23
2018-09-23T03:44:09.761Z,51.93
2018-09-23T03:46:38.082Z,52.83
2018-09-23T03:49:06.406Z,51.84
2018-09-23T03:51:34.694Z,51.42
2018-09-23T03:54:03.034Z,51.91
2018-09-23T03:56:31.357Z,52.04
2018-09-23T03:58:59.661Z,52.27
2018-09-23T04:01:27.917Z,51.86
2018-09-23T04:03:56.233Z,52.48
2018-09-23T04:06:24.701Z,52.62
2018-09-23T04:08:53.237Z,53.25
2018-09-23T04:11:21.504Z,52.31
2018-09-23T04:13:49.789Z,51.72
2018-09-23T04:16:18.057Z,51.33
2018-09-23T04:18:46.351Z,51.24
2018-09-23T04:21:14.617Z,51.07
2018-09-23T04:23:43.040Z,51.38
2018-09-23T04:26:11.332Z,51.95
2018-09-23T04:28:39.688Z,52.09
2018-09-23T04:31:08.078Z,52.21
2018-09-23T04:33:36.375Z,52.08
2018-09-23T04:36:04.646Z,52.19
2018-09-23T04:38:33.146Z,52.14
2018-09-23T04:41:01.558Z,52.56
2018-09-23T04:43:29.874Z,52.21
2018-09-23T04:45:58.290Z,52.64
2018-09-23T04:48:26.548Z,52.64
2018-09-23T04:50:54.914Z,53.14
2018-09-23T04:53:23.246Z,53.17
2018-09-23T04:55:51.557Z,53.58
2018-09-23T04:58:19.881Z,52.81
2018-09-23T05:00:48.190Z,53.13
2018-09-23T05:03:16.621Z,52.73
2018-09-23T05:05:45.024Z,52.92
2018-09-23T05:08:13.346Z,53.08
2018-09-23T05:10:41.761Z,52.55
2018-09-23T05:13:10.105Z,53.39
2018-09-23T05:18:18.472Z,52.32
2018-09-23T05:20:46.922Z,52.94
2018-09-23T05:23:15.253Z,51.76
2018-09-23T05:25:43.496Z,52.20
2018-09-23T05:28:11.814Z,51.69
2018-09-23T05:30:40.098Z,52.70
2018-09-23T05:33:08.512Z,53.58
2018-09-23T05:35:36.788Z,52.43
2018-09-23T05:38:05.155Z,52.58
2018-09-23T05:40:33.474Z,53.04
2018-09-23T05:43:01.851Z,53.56
2018-09-23T05:45:30.161Z,51.35
2018-09-23T05:47:58.609Z,50.94
2018-09-23T05:50:26.978Z,51.64
2018-09-23T05:52:55.254Z,50.52
2018-09-23T05:55:23.677Z,49.37
2018-09-23T05:57:52.003Z,52.08
2018-09-23T06:00:20.380Z,50.80
2018-09-23T06:02:48.701Z,51.24
2018-09-23T06:05:16.985Z,52.79
2018-09-23T06:07:45.298Z,51.09
2018-09-23T06:10:13.753Z,50.47
2018-09-23T06:12:42.068Z,51.96
2018-09-23T06:15:10.332Z,52.90
2018-09-23T06:17:38.691Z,50.22
2018-09-23T06:20:07.249Z,49.88
2018-09-23T06:22:35.505Z,50.50
2018-09-23T06:25:03.967Z,52.13
2018-09-23T06:27:32.215Z,49.29
2018-09-23T06:30:00.563Z,51.29
2018-09-23T06:32:29.172Z,51.63
2018-09-23T06:34:57.902Z,51.64
2018-09-23T06:37:26.212Z,51.45
2018-09-23T06:39:54.702Z,50.92
2018-09-23T06:42:22.980Z,49.95
2018-09-23T06:44:51.320Z,50.34
2018-09-23T06:47:19.700Z,51.32
2018-09-23T06:49:47.980Z,51.74
2018-09-23T06:52:16.575Z,51.81
2018-09-23T06:54:45.265Z,50.27
2018-09-23T06:57:13.656Z,50.70
2018-09-23T06:59:41.896Z,50.20
2018-09-23T07:02:10.222Z,50.39
2018-09-23T07:04:38.755Z,50.62
2018-09-23T07:07:07.026Z,50.37
2018-09-23T07:09:35.333Z,49.79
2018-09-23T07:12:03.713Z,49.48
2018-09-23T07:14:32.133Z,49.96
2018-09-23T07:17:00.557Z,49.76
2018-09-23T07:19:28.952Z,48.23
2018-09-23T07:21:57.274Z,48.23
2018-09-23T07:24:25.593Z,48.17
2018-09-23T07:27:00.454Z,49.70
2018-09-23T07:29:28.755Z,48.13
2018-09-23T07:31:57.436Z,47.86
2018-09-23T07:34:25.740Z,48.55
2018-09-23T07:36:54.143Z,47.38
2018-09-23T07:39:22.400Z,46.69
2018-09-23T07:41:50.723Z,47.86
2018-09-23T07:44:19.074Z,47.06
2018-09-23T07:46:47.439Z,47.21
2018-09-23T07:49:15.772Z,48.24
2018-09-23T07:51:44.094Z,48.23
2018-09-23T07:54:12.328Z,47.23
2018-09-23T07:56:40.648Z,46.82
2018-09-23T07:59:08.959Z,46.00
2018-09-23T08:01:37.304Z,45.50
2018-09-23T08:04:05.717Z,46.60
2018-09-23T08:06:34.019Z,46.06
2018-09-23T08:09:02.348Z,45.28
2018-09-23T08:11:30.642Z,45.18
2018-09-23T08:13:59.248Z,47.10
2018-09-23T08:16:27.237Z,45.17
2018-09-23T08:18:55.526Z,44.82
2018-09-23T08:21:23.912Z,46.06
2018-09-23T08:23:52.192Z,46.34
2018-09-23T08:26:20.584Z,47.38
2018-09-23T08:28:48.865Z,47.35
2018-09-23T08:31:17.229Z,47.11
2018-09-23T08:33:45.535Z,47.29
2018-09-23T08:36:13.824Z,46.88
2018-09-23T08:38:42.324Z,47.56
2018-09-23T08:41:10.674Z,46.95
2018-09-23T08:43:39.051Z,46.75
2018-09-23T08:46:07.392Z,46.01
2018-09-23T08:48:36.197Z,47.32
2018-09-23T08:51:04.652Z,45.55
2018-09-23T08:53:32.965Z,47.28
2018-09-23T08:56:01.346Z,46.52
2018-09-23T08:58:30.644Z,46.70
2018-09-23T09:01:10.753Z,47.62
2018-09-23T09:03:48.008Z,47.08
2018-09-23T09:06:16.532Z,47.12
2018-09-23T09:08:44.997Z,49.09
2018-09-23T09:11:13.598Z,48.24
2018-09-23T09:13:43.273Z,49.88
2018-09-23T09:16:11.625Z,49.31
2018-09-23T09:18:40.196Z,46.75
2018-09-23T09:21:08.553Z,47.47
2018-09-23T09:23:40.756Z,48.12
2018-09-23T09:26:09.400Z,47.47
2018-09-23T09:28:38.001Z,46.50
2018-09-23T09:31:10.381Z,45.60
2018-09-23T09:33:50.567Z,47.09
2018-09-23T09:36:21.521Z,47.07
2018-09-23T09:38:51.601Z,47.23
2018-09-23T09:41:21.551Z,46.95
2018-09-23T09:43:58.821Z,46.96
2018-09-23T09:46:30.584Z,46.21
2018-09-23T09:49:00.401Z,47.58
2018-09-23T09:51:30.387Z,44.56
2018-09-23T09:54:08.545Z,44.39
2018-09-23T09:56:41.605Z,44.59
2018-09-23T09:59:15.351Z,44.03
2018-09-23T10:01:59.824Z,44.70
2018-09-23T10:04:42.151Z,43.84
2018-09-23T10:07:25.389Z,44.54
2018-09-23T10:09:55.555Z,45.04
2018-09-23T10:12:28.478Z,43.32
2018-09-23T10:14:57.072Z,44.62
2018-09-23T10:17:25.844Z,44.14
2018-09-23T10:19:54.396Z,43.61
2018-09-23T10:22:28.808Z,43.40
2018-09-23T10:24:57.517Z,43.71
2018-09-23T10:27:29.536Z,42.92
2018-09-23T10:29:59.046Z,41.39
2018-09-23T10:35:05.203Z,41.51
2018-09-23T10:37:33.906Z,40.59
2018-09-23T10:40:02.450Z,40.58
2018-09-23T10:42:30.817Z,39.91
2018-09-23T10:44:59.381Z,40.70
2018-09-23T10:47:27.652Z,40.34
2018-09-23T10:49:56.023Z,39.58
2018-09-23T10:52:24.387Z,40.16
2018-09-23T10:54:52.829Z,40.92
2018-09-23T10:57:21.376Z,39.65
2018-09-23T10:59:49.875Z,41.56
2018-09-23T11:02:18.285Z,41.57
2018-09-23T11:04:47.085Z,43.10
2018-09-23T11:07:15.600Z,41.90
2018-09-23T11:09:44.238Z,42.09
2018-09-23T11:12:13.074Z,41.95
2018-09-23T11:14:41.484Z,40.42
2018-09-23T11:17:09.808Z,40.47
2018-09-23T11:19:38.577Z,39.98
2018-09-23T11:22:07.057Z,38.80
2018-09-23T11:24:35.503Z,39.67
2018-09-23T11:27:04.191Z,38.15
2018-09-23T11:29:32.656Z,37.95
2018-09-23T11:32:01.076Z,38.01
2018-09-23T11:34:29.438Z,38.62
2018-09-23T11:36:57.970Z,38.78
2018-09-23T11:39:26.312Z,37.92
2018-09-23T11:47:53.557Z,37.83
2018-09-23T11:50:21.903Z,39.16
2018-09-23T11:52:50.321Z,39.32
2018-09-23T11:55:18.612Z,36.81
2018-09-23T11:57:46.987Z,37.54
2018-09-23T12:00:15.416Z,35.34
2018-09-23T12:02:43.722Z,35.32
2018-09-23T12:05:12.026Z,36.47
2018-09-23T12:07:40.561Z,34.37
2018-09-23T12:10:08.974Z,32.97
2018-09-23T12:12:37.356Z,35.92
2018-09-23T12:15:05.648Z,34.91
2018-09-23T12:17:33.959Z,37.10
2018-09-23T12:20:02.412Z,37.85
2018-09-23T12:22:30.746Z,37.83
2018-09-23T12:24:59.061Z,38.63
2018-09-23T12:27:28.277Z,35.13
2018-09-23T12:29:56.610Z,32.51
2018-09-23T12:32:25.031Z,33.03
2018-09-23T12:34:53.390Z,32.05
2018-09-23T12:37:21.709Z,31.21
2018-09-23T12:39:50.097Z,30.52
2018-09-23T12:42:18.476Z,31.93
2018-09-23T12:44:46.963Z,31.64
2018-09-23T12:47:17.104Z,29.55
2018-09-23T12:49:45.530Z,29.81
2018-09-23T12:52:13.852Z,29.54
2018-09-23T12:54:42.687Z,29.18
2018-09-23T12:57:11.168Z,25.70
2018-09-23T12:59:39.774Z,26.46
2018-09-23T13:02:08.783Z,26.73
2018-09-23T13:04:37.136Z,27.98
2018-09-23T13:07:05.614Z,28.48
2018-09-23T13:09:33.918Z,30.08
2018-09-23T13:12:02.991Z,29.26
2018-09-23T13:14:31.384Z,29.47
2018-09-23T13:16:59.773Z,28.88
2018-09-23T13:19:28.226Z,28.35
2018-09-23T13:21:56.725Z,28.82
2018-09-23T13:24:25.124Z,29.46
2018-09-23T13:26:53.438Z,31.76
2018-09-23T13:29:21.758Z,34.84
2018-09-23T13:31:50.133Z,34.38
2018-09-23T13:34:25.169Z,35.99
2018-09-23T13:36:53.548Z,36.83
2018-09-23T13:39:21.897Z,37.79
2018-09-23T13:41:50.168Z,38.05
2018-09-23T13:44:18.415Z,38.82
2018-09-23T13:46:46.797Z,38.96
2018-09-23T13:49:15.112Z,38.49
2018-09-23T13:51:43.424Z,37.56
2018-09-23T13:54:11.738Z,39.06
2018-09-23T13:56:40.362Z,39.08
2018-09-23T13:59:08.642Z,40.74
2018-09-23T14:01:36.995Z,40.87
2018-09-23T14:04:05.280Z,40.88
2018-09-23T14:06:33.562Z,39.88
2018-09-23T14:09:01.880Z,39.46
2018-09-23T14:11:30.199Z,39.18
2018-09-23T14:13:58.589Z,39.59
2018-09-23T14:16:26.874Z,39.89
2018-09-23T14:18:55.197Z,40.40
2018-09-23T14:21:23.519Z,40.92
2018-09-23T14:23:51.896Z,40.89
2018-09-23T14:26:20.172Z,39.92
2018-09-23T14:28:48.472Z,40.47
2018-09-23T14:31:16.797Z,39.10
2018-09-23T14:33:45.125Z,40.65
2018-09-23T14:36:13.429Z,39.74
2018-09-23T14:38:41.803Z,39.82
2018-09-23T14:41:10.068Z,39.07
2018-09-23T14:43:38.642Z,41.24
2018-09-23T14:46:07.605Z,40.69
2018-09-23T14:48:35.977Z,39.92
2018-09-23T14:51:04.327Z,41.30
2018-09-23T14:53:32.783Z,41.94
2018-09-23T14:56:01.212Z,41.37
2018-09-23T14:58:29.710Z,40.88
2018-09-23T15:00:58.210Z,40.25
2018-09-23T15:03:26.468Z,39.90
2018-09-23T15:05:54.821Z,41.18
2018-09-23T15:08:23.216Z,40.47
2018-09-23T15:10:54.844Z,40.05
2018-09-23T15:13:23.124Z,38.76
2018-09-23T15:15:51.549Z,39.28
2018-09-23T15:18:19.876Z,39.29
2018-09-23T15:20:48.323Z,39.36
2018-09-23T15:23:16.711Z,39.66
2018-09-23T15:25:47.588Z,38.50
2018-09-23T15:28:15.996Z,35.94
2018-09-23T15:30:44.574Z,32.47
2018-09-23T15:33:13.160Z,29.99
2018-09-23T15:35:41.576Z,30.58
2018-09-23T15:38:09.904Z,30.38
2018-09-23T15:40:38.660Z,32.57
2018-09-23T15:43:07.505Z,31.35
2018-09-23T15:45:35.829Z,30.74
2018-09-23T15:48:04.247Z,30.50
2018-09-23T15:50:32.660Z,28.85
2018-09-23T15:53:03.642Z,30.31
2018-09-23T15:55:32.164Z,31.98
2018-09-23T15:58:00.654Z,33.25
2018-09-23T16:00:28.933Z,36.12
2018-09-23T16:02:57.260Z,37.46
2018-09-23T16:05:25.613Z,39.17
2018-09-23T16:07:54.191Z,38.20
2018-09-23T16:10:22.527Z,39.45
2018-09-23T16:12:50.975Z,39.66
2018-09-23T16:15:19.326Z,40.06
2018-09-23T16:17:48.541Z,40.69
2018-09-23T16:20:16.992Z,41.21
2018-09-23T16:22:45.323Z,40.42
2018-09-23T16:25:13.721Z,47.90
2018-09-23T16:27:42.044Z,49.17
2018-09-23T16:30:10.466Z,53.62
2018-09-23T16:32:38.778Z,56.64
2018-09-23T16:35:07.509Z,55.64
2018-09-23T16:37:35.892Z,57.58
2018-09-23T16:40:04.917Z,59.29
2018-09-23T16:42:33.318Z,69.42
2018-09-23T16:45:01.685Z,36.27
2018-09-23T16:47:30.037Z,62.44
2018-09-23T16:49:58.468Z,67.20
2018-09-23T16:52:26.835Z,54.18
2018-09-23T16:54:57.463Z,100.00
2018-09-23T16:57:25.838Z,54.18
2018-09-23T16:59:54.134Z,60.88
2018-09-23T17:02:24.104Z,100.00
2018-09-23T17:04:53.758Z,60.88
2018-09-23T17:07:24.690Z,100.00
2018-09-23T17:09:53.110Z,71.61
2018-09-23T17:12:41.854Z,71.61
2018-09-23T17:15:25.151Z,71.61
2018-09-23T17:18:00.873Z,71.61
2018-09-23T17:22:30.756Z,100.00
2018-09-23T17:31:30.076Z,100.00
2018-09-23T19:05:05.360Z,71.61
2018-09-23T19:07:33.832Z,68.73
2018-09-23T19:10:02.238Z,68.62
2018-09-23T19:12:31.203Z,66.33
2018-09-23T19:14:59.699Z,68.35
2018-09-23T19:17:28.129Z,67.77
2018-09-23T19:20:02.412Z,67.77
2018-09-23T19:22:36.651Z,67.73
2018-09-23T19:25:05.252Z,100.00
